sensor_id;sensor_type;location;lat;lon;timestamp;pressure;altitude;pressure_sealevel;temperature;humidity
2184;BME280;1098;48.940;8.962;2022-11-15T00:02:38;98150.81;;;8.85;100.00
2184;BME280;1098;48.940;8.962;2022-11-15T00:05:25;98150.75;;;8.91;100.00
2184;BME280;1098;48.940;8.962;2022-11-15T00:08:11;98152.75;;;8.96;100.00
2184;BME280;1098;48.940;8.962;2022-11-15T00:10:59;98141.81;;;9.09;100.00
2184;BME280;1098;48.940;8.962;2022-11-15T00:13:46;98148.75;;;9.17;100.00
2184;BME280;1098;48.940;8.962;2022-11-15T00:16:34;98146.41;;;9.39;100.00
2184;BME280;1098;48.940;8.962;2022-11-15T00:19:21;98160.38;;;9.17;100.00
2184;BME280;1098;48.940;8.962;2022-11-15T00:22:08;98153.06;;;9.06;100.00
2184;BME280;1098;48.940;8.962;2022-11-15T00:24:54;98127.59;;;9.02;100.00
2184;BME280;1098;48.940;8.962;2022-11-15T00:27:41;98154.13;;;8.44;100.00
2184;BME280;1098;48.940;8.962;2022-11-15T00:30:28;98151.91;;;8.95;100.00
2184;BME280;1098;48.940;8.962;2022-11-15T00:33:16;98152.56;;;8.54;100.00
2184;BME280;1098;48.940;8.962;2022-11-15T00:36:03;98141.13;;;8.77;100.00
2184;BME280;1098;48.940;8.962;2022-11-15T00:38:50;98145.69;;;8.77;100.00
2184;BME280;1098;48.940;8.962;2022-11-15T00:41:36;98144.38;;;9.04;100.00
2184;BME280;1098;48.940;8.962;2022-11-15T00:44:23;98133.88;;;9.14;100.00
2184;BME280;1098;48.940;8.962;2022-11-15T00:47:10;98130.22;;;9.39;100.00
2184;BME280;1098;48.940;8.962;2022-11-15T00:49:58;98129.41;;;9.38;100.00
2184;BME280;1098;48.940;8.962;2022-11-15T00:52:45;98118.47;;;9.63;100.00
2184;BME280;1098;48.940;8.962;2022-11-15T00:55:31;98119.38;;;9.57;100.00
2184;BME280;1098;48.940;8.962;2022-11-15T00:58:18;98110.38;;;9.51;100.00
2184;BME280;1098;48.940;8.962;2022-11-15T01:01:05;98120.81;;;9.29;100.00
2184;BME280;1098;48.940;8.962;2022-11-15T01:03:52;98113.59;;;9.42;100.00
2184;BME280;1098;48.940;8.962;2022-11-15T01:06:46;98120.78;;;9.00;100.00
2184;BME280;1098;48.940;8.962;2022-11-15T01:09:33;98110.66;;;8.95;100.00
2184;BME280;1098;48.940;8.962;2022-11-15T01:12:19;98115.53;;;9.05;100.00
2184;BME280;1098;48.940;8.962;2022-11-15T01:15:06;98100.16;;;9.23;100.00
2184;BME280;1098;48.940;8.962;2022-11-15T01:17:53;98106.41;;;9.06;100.00
2184;BME280;1098;48.940;8.962;2022-11-15T01:20:40;98109.28;;;8.92;100.00
2184;BME280;1098;48.940;8.962;2022-11-15T01:23:29;98104.84;;;8.98;100.00
2184;BME280;1098;48.940;8.962;2022-11-15T01:26:16;98105.00;;;8.85;100.00
2184;BME280;1098;48.940;8.962;2022-11-15T01:29:03;98097.25;;;9.25;100.00
2184;BME280;1098;48.940;8.962;2022-11-15T01:31:49;98091.31;;;9.35;100.00
2184;BME280;1098;48.940;8.962;2022-11-15T01:34:36;98085.22;;;9.39;100.00
2184;BME280;1098;48.940;8.962;2022-11-15T01:37:23;98075.13;;;9.35;100.00
2184;BME280;1098;48.940;8.962;2022-11-15T01:40:11;98089.22;;;9.18;100.00
2184;BME280;1098;48.940;8.962;2022-11-15T01:42:57;98088.22;;;9.61;100.00
2184;BME280;1098;48.940;8.962;2022-11-15T01:45:44;98081.44;;;9.28;100.00
2184;BME280;1098;48.940;8.962;2022-11-15T01:48:33;98082.44;;;9.46;100.00
2184;BME280;1098;48.940;8.962;2022-11-15T01:51:21;98073.00;;;9.67;100.00
2184;BME280;1098;48.940;8.962;2022-11-15T01:54:10;98075.69;;;9.37;100.00
2184;BME280;1098;48.940;8.962;2022-11-15T01:57:01;98064.34;;;9.88;100.00
2184;BME280;1098;48.940;8.962;2022-11-15T01:59:50;98059.50;;;9.55;100.00
2184;BME280;1098;48.940;8.962;2022-11-15T02:02:36;98071.78;;;9.51;100.00
2184;BME280;1098;48.940;8.962;2022-11-15T02:05:24;98064.25;;;9.94;100.00
2184;BME280;1098;48.940;8.962;2022-11-15T02:08:11;98066.31;;;9.69;100.00
2184;BME280;1098;48.940;8.962;2022-11-15T02:11:07;98067.16;;;9.81;100.00
2184;BME280;1098;48.940;8.962;2022-11-15T02:13:55;98062.00;;;10.03;100.00
2184;BME280;1098;48.940;8.962;2022-11-15T02:16:43;98057.22;;;9.93;100.00
2184;BME280;1098;48.940;8.962;2022-11-15T02:19:45;98068.66;;;9.77;100.00
2184;BME280;1098;48.940;8.962;2022-11-15T02:22:36;98063.13;;;9.60;100.00
2184;BME280;1098;48.940;8.962;2022-11-15T02:25:31;98061.88;;;9.33;100.00
2184;BME280;1098;48.940;8.962;2022-11-15T02:28:33;98051.03;;;9.51;100.00
2184;BME280;1098;48.940;8.962;2022-11-15T02:31:26;98049.47;;;10.09;100.00
2184;BME280;1098;48.940;8.962;2022-11-15T02:34:17;98044.31;;;10.19;100.00
2184;BME280;1098;48.940;8.962;2022-11-15T02:37:07;98040.72;;;9.60;100.00
2184;BME280;1098;48.940;8.962;2022-11-15T02:39:59;98041.34;;;9.85;100.00
2184;BME280;1098;48.940;8.962;2022-11-15T02:42:49;98036.19;;;9.84;100.00
2184;BME280;1098;48.940;8.962;2022-11-15T02:46:03;98032.53;;;9.78;100.00
2184;BME280;1098;48.940;8.962;2022-11-15T02:48:55;98029.50;;;10.10;100.00
2184;BME280;1098;48.940;8.962;2022-11-15T02:51:42;98028.19;;;9.54;100.00
2184;BME280;1098;48.940;8.962;2022-11-15T02:54:30;98024.59;;;9.95;100.00
2184;BME280;1098;48.940;8.962;2022-11-15T02:57:17;98009.31;;;10.12;100.00
2184;BME280;1098;48.940;8.962;2022-11-15T03:00:06;98014.81;;;10.41;100.00
2184;BME280;1098;48.940;8.962;2022-11-15T03:03:00;98020.72;;;10.26;100.00
2184;BME280;1098;48.940;8.962;2022-11-15T03:05:55;98013.44;;;10.38;100.00
2184;BME280;1098;48.940;8.962;2022-11-15T03:08:46;98010.28;;;10.18;100.00
2184;BME280;1098;48.940;8.962;2022-11-15T03:11:37;98010.47;;;9.70;100.00
2184;BME280;1098;48.940;8.962;2022-11-15T03:14:27;97997.22;;;10.03;100.00
2184;BME280;1098;48.940;8.962;2022-11-15T03:17:18;97998.50;;;9.77;100.00
2184;BME280;1098;48.940;8.962;2022-11-15T03:20:05;98001.22;;;9.77;100.00
2184;BME280;1098;48.940;8.962;2022-11-15T03:22:55;98000.41;;;9.88;100.00
2184;BME280;1098;48.940;8.962;2022-11-15T03:25:43;97986.09;;;9.76;100.00
2184;BME280;1098;48.940;8.962;2022-11-15T03:28:32;97998.75;;;9.87;100.00
2184;BME280;1098;48.940;8.962;2022-11-15T03:31:19;97999.31;;;9.78;100.00
2184;BME280;1098;48.940;8.962;2022-11-15T03:34:34;97998.38;;;9.49;100.00
2184;BME280;1098;48.940;8.962;2022-11-15T03:37:24;98000.66;;;9.75;100.00
2184;BME280;1098;48.940;8.962;2022-11-15T03:40:13;97990.91;;;9.86;100.00
2184;BME280;1098;48.940;8.962;2022-11-15T03:43:01;97983.97;;;10.13;100.00
2184;BME280;1098;48.940;8.962;2022-11-15T03:45:52;97991.34;;;9.59;100.00
2184;BME280;1098;48.940;8.962;2022-11-15T03:48:41;97989.94;;;9.80;100.00
2184;BME280;1098;48.940;8.962;2022-11-15T03:51:30;97983.13;;;9.78;100.00
2184;BME280;1098;48.940;8.962;2022-11-15T03:54:16;97979.84;;;9.52;100.00
2184;BME280;1098;48.940;8.962;2022-11-15T03:57:04;97984.66;;;9.62;100.00
2184;BME280;1098;48.940;8.962;2022-11-15T03:59:51;97977.28;;;9.69;100.00
2184;BME280;1098;48.940;8.962;2022-11-15T04:02:38;97972.03;;;9.21;100.00
2184;BME280;1098;48.940;8.962;2022-11-15T04:05:24;97973.63;;;9.40;100.00
2184;BME280;1098;48.940;8.962;2022-11-15T04:08:11;97975.63;;;9.03;100.00
2184;BME280;1098;48.940;8.962;2022-11-15T04:10:58;97984.09;;;9.72;100.00
2184;BME280;1098;48.940;8.962;2022-11-15T04:13:48;97985.03;;;9.65;100.00
2184;BME280;1098;48.940;8.962;2022-11-15T04:16:34;97983.03;;;9.84;100.00
2184;BME280;1098;48.940;8.962;2022-11-15T04:19:27;97983.41;;;9.88;100.00
2184;BME280;1098;48.940;8.962;2022-11-15T04:22:32;97985.25;;;9.99;100.00
2184;BME280;1098;48.940;8.962;2022-11-15T04:25:36;97983.84;;;10.08;100.00
2184;BME280;1098;48.940;8.962;2022-11-15T04:28:23;97977.63;;;10.08;100.00
2184;BME280;1098;48.940;8.962;2022-11-15T04:31:11;97974.59;;;9.92;100.00
2184;BME280;1098;48.940;8.962;2022-11-15T04:33:57;97957.59;;;9.92;100.00
2184;BME280;1098;48.940;8.962;2022-11-15T04:36:44;97961.22;;;10.21;100.00
2184;BME280;1098;48.940;8.962;2022-11-15T04:39:48;97960.25;;;10.27;100.00
2184;BME280;1098;48.940;8.962;2022-11-15T04:42:34;97960.50;;;9.67;100.00
2184;BME280;1098;48.940;8.962;2022-11-15T04:45:21;97959.34;;;9.51;100.00
2184;BME280;1098;48.940;8.962;2022-11-15T04:48:09;97948.66;;;10.15;100.00
2184;BME280;1098;48.940;8.962;2022-11-15T04:50:55;97950.66;;;9.73;100.00
2184;BME280;1098;48.940;8.962;2022-11-15T04:53:42;97954.88;;;9.57;100.00
2184;BME280;1098;48.940;8.962;2022-11-15T04:56:28;97949.25;;;9.93;100.00
2184;BME280;1098;48.940;8.962;2022-11-15T04:59:15;97945.00;;;10.21;100.00
2184;BME280;1098;48.940;8.962;2022-11-15T05:02:02;97936.22;;;10.14;100.00
2184;BME280;1098;48.940;8.962;2022-11-15T05:04:49;97939.38;;;10.22;100.00
2184;BME280;1098;48.940;8.962;2022-11-15T05:07:35;97936.72;;;10.51;100.00
2184;BME280;1098;48.940;8.962;2022-11-15T05:10:22;97941.13;;;10.28;100.00
2184;BME280;1098;48.940;8.962;2022-11-15T05:13:08;97938.06;;;10.25;100.00
2184;BME280;1098;48.940;8.962;2022-11-15T05:15:55;97935.03;;;10.10;100.00
2184;BME280;1098;48.940;8.962;2022-11-15T05:18:42;97942.41;;;10.38;100.00
2184;BME280;1098;48.940;8.962;2022-11-15T05:21:30;97944.78;;;9.99;100.00
2184;BME280;1098;48.940;8.962;2022-11-15T05:24:16;97935.25;;;10.31;100.00
2184;BME280;1098;48.940;8.962;2022-11-15T05:27:03;97940.53;;;10.15;100.00
2184;BME280;1098;48.940;8.962;2022-11-15T05:29:50;97936.91;;;10.21;100.00
2184;BME280;1098;48.940;8.962;2022-11-15T05:32:36;97935.25;;;10.20;100.00
2184;BME280;1098;48.940;8.962;2022-11-15T05:35:27;97931.28;;;9.99;100.00
2184;BME280;1098;48.940;8.962;2022-11-15T05:38:17;97931.16;;;10.06;100.00
2184;BME280;1098;48.940;8.962;2022-11-15T05:41:04;97927.66;;;9.93;100.00
2184;BME280;1098;48.940;8.962;2022-11-15T05:43:51;97919.41;;;10.23;100.00
2184;BME280;1098;48.940;8.962;2022-11-15T05:46:38;97921.00;;;9.73;100.00
2184;BME280;1098;48.940;8.962;2022-11-15T05:49:27;97921.09;;;9.43;100.00
2184;BME280;1098;48.940;8.962;2022-11-15T05:52:17;97913.56;;;9.21;100.00
2184;BME280;1098;48.940;8.962;2022-11-15T05:55:06;97913.44;;;9.05;100.00
2184;BME280;1098;48.940;8.962;2022-11-15T05:57:54;97917.00;;;9.52;100.00
2184;BME280;1098;48.940;8.962;2022-11-15T06:00:41;97915.38;;;9.51;100.00
2184;BME280;1098;48.940;8.962;2022-11-15T06:03:28;97917.13;;;9.34;100.00
2184;BME280;1098;48.940;8.962;2022-11-15T06:06:16;97917.91;;;10.04;100.00
2184;BME280;1098;48.940;8.962;2022-11-15T06:09:03;97923.31;;;9.92;100.00
2184;BME280;1098;48.940;8.962;2022-11-15T06:11:51;97923.53;;;10.03;100.00
2184;BME280;1098;48.940;8.962;2022-11-15T06:14:39;97919.31;;;10.07;100.00
2184;BME280;1098;48.940;8.962;2022-11-15T06:17:25;97920.41;;;10.46;100.00
2184;BME280;1098;48.940;8.962;2022-11-15T06:20:12;97930.09;;;10.07;100.00
2184;BME280;1098;48.940;8.962;2022-11-15T06:23:01;97920.75;;;9.97;100.00
2184;BME280;1098;48.940;8.962;2022-11-15T06:25:48;97923.63;;;10.31;100.00
2184;BME280;1098;48.940;8.962;2022-11-15T06:28:36;97916.53;;;10.53;100.00
2184;BME280;1098;48.940;8.962;2022-11-15T06:31:23;97920.88;;;10.43;100.00
2184;BME280;1098;48.940;8.962;2022-11-15T06:34:10;97920.97;;;10.59;100.00
2184;BME280;1098;48.940;8.962;2022-11-15T06:36:57;97922.41;;;10.50;100.00
2184;BME280;1098;48.940;8.962;2022-11-15T06:39:43;97917.53;;;10.64;100.00
2184;BME280;1098;48.940;8.962;2022-11-15T06:42:30;97918.69;;;10.68;100.00
2184;BME280;1098;48.940;8.962;2022-11-15T06:45:18;97920.31;;;10.69;100.00
2184;BME280;1098;48.940;8.962;2022-11-15T06:48:05;97929.25;;;10.70;100.00
2184;BME280;1098;48.940;8.962;2022-11-15T06:50:53;97925.81;;;10.46;100.00
2184;BME280;1098;48.940;8.962;2022-11-15T06:53:39;97922.41;;;10.50;100.00
2184;BME280;1098;48.940;8.962;2022-11-15T06:56:26;97906.53;;;10.54;100.00
2184;BME280;1098;48.940;8.962;2022-11-15T06:59:13;97925.06;;;10.22;100.00
2184;BME280;1098;48.940;8.962;2022-11-15T07:02:01;97936.31;;;10.19;100.00
2184;BME280;1098;48.940;8.962;2022-11-15T07:04:48;97935.25;;;10.31;100.00
2184;BME280;1098;48.940;8.962;2022-11-15T07:07:35;97929.03;;;10.31;100.00
2184;BME280;1098;48.940;8.962;2022-11-15T07:10:23;97925.13;;;10.79;100.00
2184;BME280;1098;48.940;8.962;2022-11-15T07:13:10;97927.28;;;10.93;100.00
2184;BME280;1098;48.940;8.962;2022-11-15T07:15:57;97934.91;;;11.13;100.00
2184;BME280;1098;48.940;8.962;2022-11-15T07:18:45;97924.59;;;10.82;100.00
2184;BME280;1098;48.940;8.962;2022-11-15T07:21:32;97936.41;;;10.76;100.00
2184;BME280;1098;48.940;8.962;2022-11-15T07:24:19;97940.56;;;11.28;100.00
2184;BME280;1098;48.940;8.962;2022-11-15T07:27:05;97945.97;;;11.12;100.00
2184;BME280;1098;48.940;8.962;2022-11-15T07:29:52;97947.28;;;11.09;100.00
2184;BME280;1098;48.940;8.962;2022-11-15T07:32:39;97942.72;;;11.26;100.00
2184;BME280;1098;48.940;8.962;2022-11-15T07:35:28;97939.13;;;11.54;100.00
2184;BME280;1098;48.940;8.962;2022-11-15T07:38:16;97937.13;;;11.16;100.00
2184;BME280;1098;48.940;8.962;2022-11-15T07:41:06;97934.66;;;10.98;100.00
2184;BME280;1098;48.940;8.962;2022-11-15T07:43:53;97941.00;;;11.54;100.00
2184;BME280;1098;48.940;8.962;2022-11-15T07:46:40;97939.59;;;11.34;100.00
2184;BME280;1098;48.940;8.962;2022-11-15T07:49:26;97936.13;;;11.22;100.00
2184;BME280;1098;48.940;8.962;2022-11-15T07:52:14;97942.75;;;10.98;100.00
2184;BME280;1098;48.940;8.962;2022-11-15T07:55:01;97942.66;;;10.93;100.00
2184;BME280;1098;48.940;8.962;2022-11-15T07:57:48;97939.88;;;9.61;100.00
2184;BME280;1098;48.940;8.962;2022-11-15T08:00:36;97929.78;;;9.80;100.00
2184;BME280;1098;48.940;8.962;2022-11-15T08:03:23;97931.31;;;9.64;100.00
2184;BME280;1098;48.940;8.962;2022-11-15T08:06:09;97933.53;;;9.67;100.00
2184;BME280;1098;48.940;8.962;2022-11-15T08:08:58;97933.28;;;9.45;100.00
2184;BME280;1098;48.940;8.962;2022-11-15T08:11:44;97937.06;;;9.56;100.00
2184;BME280;1098;48.940;8.962;2022-11-15T08:14:31;97934.34;;;9.79;100.00
2184;BME280;1098;48.940;8.962;2022-11-15T08:17:18;97928.09;;;10.25;100.00
2184;BME280;1098;48.940;8.962;2022-11-15T08:20:05;97922.69;;;11.11;100.00
2184;BME280;1098;48.940;8.962;2022-11-15T08:22:52;97920.31;;;10.69;100.00
2184;BME280;1098;48.940;8.962;2022-11-15T08:25:40;97921.88;;;11.10;100.00
2184;BME280;1098;48.940;8.962;2022-11-15T08:28:27;97918.22;;;10.31;100.00
2184;BME280;1098;48.940;8.962;2022-11-15T08:31:15;97903.56;;;10.15;100.00
2184;BME280;1098;48.940;8.962;2022-11-15T08:34:04;97904.56;;;10.49;100.00
2184;BME280;1098;48.940;8.962;2022-11-15T08:36:51;97906.75;;;10.81;100.00
2184;BME280;1098;48.940;8.962;2022-11-15T08:39:37;97904.25;;;10.34;100.00
2184;BME280;1098;48.940;8.962;2022-11-15T08:42:25;97902.53;;;10.05;100.00
2184;BME280;1098;48.940;8.962;2022-11-15T08:45:12;97895.94;;;10.00;100.00
2184;BME280;1098;48.940;8.962;2022-11-15T08:48:00;97895.28;;;9.93;100.00
2184;BME280;1098;48.940;8.962;2022-11-15T08:50:47;97889.75;;;10.00;100.00
2184;BME280;1098;48.940;8.962;2022-11-15T08:53:34;97892.19;;;10.13;100.00
2184;BME280;1098;48.940;8.962;2022-11-15T08:56:21;97886.31;;;10.28;100.00
2184;BME280;1098;48.940;8.962;2022-11-15T08:59:09;97890.09;;;10.55;100.00
2184;BME280;1098;48.940;8.962;2022-11-15T09:01:55;97884.28;;;10.63;100.00
2184;BME280;1098;48.940;8.962;2022-11-15T09:04:43;97885.94;;;10.81;100.00
2184;BME280;1098;48.940;8.962;2022-11-15T09:07:30;97878.28;;;10.90;100.00
2184;BME280;1098;48.940;8.962;2022-11-15T09:10:18;97881.31;;;10.93;100.00
2184;BME280;1098;48.940;8.962;2022-11-15T09:13:04;97871.81;;;11.96;100.00
2184;BME280;1098;48.940;8.962;2022-11-15T09:15:57;97865.50;;;11.35;100.00
2184;BME280;1098;48.940;8.962;2022-11-15T09:18:43;97865.16;;;12.26;100.00
2184;BME280;1098;48.940;8.962;2022-11-15T09:21:31;97863.56;;;11.86;100.00
2184;BME280;1098;48.940;8.962;2022-11-15T09:24:19;97862.06;;;12.39;100.00
2184;BME280;1098;48.940;8.962;2022-11-15T09:27:06;97871.75;;;12.84;100.00
2184;BME280;1098;48.940;8.962;2022-11-15T09:29:53;97872.72;;;12.02;100.00
2184;BME280;1098;48.940;8.962;2022-11-15T09:32:41;97868.22;;;11.91;100.00
2184;BME280;1098;48.940;8.962;2022-11-15T09:35:27;97871.81;;;11.58;100.00
2184;BME280;1098;48.940;8.962;2022-11-15T09:38:14;97858.06;;;11.64;100.00
2184;BME280;1098;48.940;8.962;2022-11-15T09:44:09;97857.66;;;11.34;100.00
2184;BME280;1098;48.940;8.962;2022-11-15T09:47:13;97843.19;;;11.62;100.00
2184;BME280;1098;48.940;8.962;2022-11-15T09:50:08;97848.84;;;11.99;100.00
2184;BME280;1098;48.940;8.962;2022-11-15T09:52:37;97851.81;;;11.97;100.00
2184;BME280;1098;48.940;8.962;2022-11-15T09:55:09;97853.44;;;11.98;100.00
2184;BME280;1098;48.940;8.962;2022-11-15T09:57:38;97859.59;;;11.94;100.00
2184;BME280;1098;48.940;8.962;2022-11-15T10:00:10;97846.63;;;11.96;100.00
2184;BME280;1098;48.940;8.962;2022-11-15T10:03:07;97847.22;;;11.98;100.00
2184;BME280;1098;48.940;8.962;2022-11-15T10:05:38;97839.00;;;12.63;100.00
2184;BME280;1098;48.940;8.962;2022-11-15T10:08:11;97831.09;;;12.89;100.00
2184;BME280;1098;48.940;8.962;2022-11-15T10:10:41;97833.59;;;12.95;100.00
2184;BME280;1098;48.940;8.962;2022-11-15T10:13:12;97839.53;;;12.87;100.00
2184;BME280;1098;48.940;8.962;2022-11-15T10:15:43;97832.16;;;12.56;100.00
2184;BME280;1098;48.940;8.962;2022-11-15T10:18:15;97828.09;;;12.31;100.00
2184;BME280;1098;48.940;8.962;2022-11-15T10:20:48;97829.50;;;12.12;100.00
2184;BME280;1098;48.940;8.962;2022-11-15T10:23:17;97822.78;;;11.93;100.00
2184;BME280;1098;48.940;8.962;2022-11-15T10:25:46;97820.78;;;12.05;100.00
2184;BME280;1098;48.940;8.962;2022-11-15T10:28:15;97817.59;;;12.13;100.00
2184;BME280;1098;48.940;8.962;2022-11-15T10:30:43;97811.44;;;11.96;100.00
2184;BME280;1098;48.940;8.962;2022-11-15T10:33:14;97812.50;;;12.17;100.00
2184;BME280;1098;48.940;8.962;2022-11-15T10:35:44;97781.88;;;13.02;100.00
2184;BME280;1098;48.940;8.962;2022-11-15T10:38:14;97806.75;;;12.13;100.00
2184;BME280;1098;48.940;8.962;2022-11-15T10:40:42;97809.16;;;12.10;100.00
2184;BME280;1098;48.940;8.962;2022-11-15T10:43:15;97802.31;;;12.02;100.00
2184;BME280;1098;48.940;8.962;2022-11-15T10:45:44;97804.22;;;12.01;100.00
2184;BME280;1098;48.940;8.962;2022-11-15T10:48:24;97803.63;;;11.99;100.00
2184;BME280;1098;48.940;8.962;2022-11-15T10:50:53;97799.28;;;12.20;100.00
2184;BME280;1098;48.940;8.962;2022-11-15T10:53:28;97778.56;;;12.36;100.00
2184;BME280;1098;48.940;8.962;2022-11-15T10:55:59;97780.53;;;12.72;100.00
2184;BME280;1098;48.940;8.962;2022-11-15T10:58:31;97777.44;;;12.59;100.00
2184;BME280;1098;48.940;8.962;2022-11-15T11:01:10;97777.94;;;12.83;100.00
2184;BME280;1098;48.940;8.962;2022-11-15T11:03:39;97787.59;;;13.05;100.00
2184;BME280;1098;48.940;8.962;2022-11-15T11:06:12;97786.09;;;12.88;100.00
2184;BME280;1098;48.940;8.962;2022-11-15T11:08:42;97782.59;;;13.24;100.00
2184;BME280;1098;48.940;8.962;2022-11-15T11:11:21;97765.19;;;13.62;100.00
2184;BME280;1098;48.940;8.962;2022-11-15T11:13:52;97768.56;;;13.37;100.00
2184;BME280;1098;48.940;8.962;2022-11-15T11:16:23;97775.75;;;13.17;100.00
2184;BME280;1098;48.940;8.962;2022-11-15T11:18:56;97772.63;;;12.98;100.00
2184;BME280;1098;48.940;8.962;2022-11-15T11:21:33;97763.91;;;12.05;100.00
2184;BME280;1098;48.940;8.962;2022-11-15T11:24:08;97760.63;;;12.30;100.00
2184;BME280;1098;48.940;8.962;2022-11-15T11:26:44;97755.78;;;12.32;100.00
2184;BME280;1098;48.940;8.962;2022-11-15T11:29:17;97752.56;;;12.35;100.00
2184;BME280;1098;48.940;8.962;2022-11-15T11:31:50;97744.19;;;12.68;100.00
2184;BME280;1098;48.940;8.962;2022-11-15T11:34:28;97739.28;;;12.65;100.00
2184;BME280;1098;48.940;8.962;2022-11-15T11:36:59;97728.25;;;13.14;100.00
2184;BME280;1098;48.940;8.962;2022-11-15T11:39:34;97722.38;;;13.85;100.00
2184;BME280;1098;48.940;8.962;2022-11-15T11:42:10;97724.38;;;14.25;100.00
2184;BME280;1098;48.940;8.962;2022-11-15T11:44:43;97718.91;;;14.15;100.00
2184;BME280;1098;48.940;8.962;2022-11-15T11:47:17;97723.63;;;14.65;100.00
2184;BME280;1098;48.940;8.962;2022-11-15T11:49:49;97729.88;;;14.86;100.00
2184;BME280;1098;48.940;8.962;2022-11-15T11:52:19;97729.31;;;15.09;100.00
2184;BME280;1098;48.940;8.962;2022-11-15T11:54:53;97729.06;;;15.16;100.00
2184;BME280;1098;48.940;8.962;2022-11-15T11:57:25;97717.91;;;14.61;100.00
2184;BME280;1098;48.940;8.962;2022-11-15T11:59:58;97720.31;;;14.27;100.00
2184;BME280;1098;48.940;8.962;2022-11-15T12:02:38;97718.69;;;14.26;100.00
2184;BME280;1098;48.940;8.962;2022-11-15T12:05:09;97710.72;;;13.99;100.00
2184;BME280;1098;48.940;8.962;2022-11-15T12:07:39;97700.81;;;14.51;100.00
2184;BME280;1098;48.940;8.962;2022-11-15T12:10:17;97708.13;;;14.55;100.00
2184;BME280;1098;48.940;8.962;2022-11-15T12:12:49;97698.56;;;14.12;100.00
2184;BME280;1098;48.940;8.962;2022-11-15T12:15:19;97698.28;;;14.24;100.00
2184;BME280;1098;48.940;8.962;2022-11-15T12:17:48;97697.19;;;14.04;100.00
2184;BME280;1098;48.940;8.962;2022-11-15T12:20:17;97690.34;;;13.87;100.00
2184;BME280;1098;48.940;8.962;2022-11-15T12:22:47;97691.97;;;13.88;100.00
2184;BME280;1098;48.940;8.962;2022-11-15T12:25:19;97681.06;;;13.77;100.00
2184;BME280;1098;48.940;8.962;2022-11-15T12:27:50;97685.94;;;13.65;100.00
2184;BME280;1098;48.940;8.962;2022-11-15T12:30:22;97676.31;;;13.37;100.00
2184;BME280;1098;48.940;8.962;2022-11-15T12:32:52;97680.03;;;13.21;100.00
2184;BME280;1098;48.940;8.962;2022-11-15T12:35:23;97682.72;;;13.16;100.00
2184;BME280;1098;48.940;8.962;2022-11-15T12:37:52;97672.28;;;12.98;100.00
2184;BME280;1098;48.940;8.962;2022-11-15T12:40:34;97669.56;;;12.98;100.00
2184;BME280;1098;48.940;8.962;2022-11-15T12:43:04;97665.00;;;13.03;100.00
2184;BME280;1098;48.940;8.962;2022-11-15T12:45:35;97665.44;;;12.90;100.00
2184;BME280;1098;48.940;8.962;2022-11-15T12:50:53;97660.28;;;12.84;100.00
2184;BME280;1098;48.940;8.962;2022-11-15T12:53:28;97649.72;;;12.92;100.00
2184;BME280;1098;48.940;8.962;2022-11-15T12:58:50;97642.50;;;13.03;100.00
2184;BME280;1098;48.940;8.962;2022-11-15T13:04:12;97634.19;;;13.20;100.00
2184;BME280;1098;48.940;8.962;2022-11-15T13:06:42;97628.09;;;13.60;100.00
2184;BME280;1098;48.940;8.962;2022-11-15T13:11:59;97627.31;;;13.74;100.00
2184;BME280;1098;48.940;8.962;2022-11-15T13:14:39;97625.69;;;13.84;100.00
2184;BME280;1098;48.940;8.962;2022-11-15T13:17:12;97618.94;;;13.91;100.00
2184;BME280;1098;48.940;8.962;2022-11-15T13:19:44;97623.53;;;13.86;100.00
2184;BME280;1098;48.940;8.962;2022-11-15T13:22:13;97616.44;;;13.69;100.00
2184;BME280;1098;48.940;8.962;2022-11-15T13:24:58;97608.56;;;13.63;100.00
2184;BME280;1098;48.940;8.962;2022-11-15T13:27:26;97605.03;;;13.72;100.00
2184;BME280;1098;48.940;8.962;2022-11-15T13:29:56;97598.75;;;13.57;100.00
2184;BME280;1098;48.940;8.962;2022-11-15T13:32:24;97598.75;;;13.57;100.00
2184;BME280;1098;48.940;8.962;2022-11-15T13:34:52;97598.78;;;13.62;100.00
2184;BME280;1098;48.940;8.962;2022-11-15T13:37:29;97574.03;;;13.43;100.00
2184;BME280;1098;48.940;8.962;2022-11-15T13:42:45;97582.78;;;13.96;100.00
2184;BME280;1098;48.940;8.962;2022-11-15T13:45:16;97577.94;;;14.03;100.00
2184;BME280;1098;48.940;8.962;2022-11-15T13:47:44;97564.59;;;14.17;100.00
2184;BME280;1098;48.940;8.962;2022-11-15T13:50:18;97565.16;;;14.03;100.00
2184;BME280;1098;48.940;8.962;2022-11-15T13:52:48;97560.50;;;14.39;100.00
2184;BME280;1098;48.940;8.962;2022-11-15T13:55:17;97558.59;;;14.35;100.00
2184;BME280;1098;48.940;8.962;2022-11-15T13:57:47;97558.53;;;14.86;100.00
2184;BME280;1098;48.940;8.962;2022-11-15T14:00:28;97559.72;;;14.49;100.00
2184;BME280;1098;48.940;8.962;2022-11-15T14:02:57;97562.16;;;14.40;100.00
2184;BME280;1098;48.940;8.962;2022-11-15T14:05:33;97549.34;;;14.71;100.00
2184;BME280;1098;48.940;8.962;2022-11-15T14:08:02;97553.09;;;14.81;100.00
2184;BME280;1098;48.940;8.962;2022-11-15T14:10:31;97546.69;;;14.26;100.00
2184;BME280;1098;48.940;8.962;2022-11-15T14:13:00;97549.38;;;14.51;100.00
2184;BME280;1098;48.940;8.962;2022-11-15T14:15:31;97549.34;;;14.61;100.00
2184;BME280;1098;48.940;8.962;2022-11-15T14:18:00;97538.19;;;14.63;100.00
2184;BME280;1098;48.940;8.962;2022-11-15T14:20:34;97545.59;;;14.52;100.00
2184;BME280;1098;48.940;8.962;2022-11-15T14:23:04;97545.84;;;14.25;100.00
2184;BME280;1098;48.940;8.962;2022-11-15T14:25:33;97543.41;;;14.24;100.00
2184;BME280;1098;48.940;8.962;2022-11-15T14:28:12;97528.75;;;14.30;100.00
2184;BME280;1098;48.940;8.962;2022-11-15T14:30:43;97529.56;;;14.30;100.00
2184;BME280;1098;48.940;8.962;2022-11-15T14:33:18;97519.44;;;14.56;100.00
2184;BME280;1098;48.940;8.962;2022-11-15T14:35:46;97513.78;;;14.42;100.00
2184;BME280;1098;48.940;8.962;2022-11-15T14:38:14;97524.41;;;14.03;100.00
2184;BME280;1098;48.940;8.962;2022-11-15T14:40:43;97511.59;;;14.34;100.00
2184;BME280;1098;48.940;8.962;2022-11-15T14:43:11;97505.94;;;14.10;100.00
2184;BME280;1098;48.940;8.962;2022-11-15T14:45:39;97503.78;;;13.82;100.00
2184;BME280;1098;48.940;8.962;2022-11-15T14:48:09;97496.97;;;13.95;100.00
2184;BME280;1098;48.940;8.962;2022-11-15T14:50:37;97494.00;;;13.81;100.00
2184;BME280;1098;48.940;8.962;2022-11-15T14:53:11;97490.19;;;13.72;100.00
2184;BME280;1098;48.940;8.962;2022-11-15T14:55:39;97490.19;;;13.77;100.00